Fort Pierce, FL (34982)

3:25 AM EDT on May 24, 2015 (GMT -0400)
Fort Pierce | | Change Station
CLOSE
Current Station
Personal Weather Station
Location: Fort Pierce, FL
Elevation: 0 ft
Nearby Weather Stations

Elev 0 ft 27.41 °N, 80.33 °W | Updated 13 minutes ago

Overcast
Overcast
78.4 °F
Feels Like 81 °F
N
0.0
Wind Variable Wind from East

Today
High -- | Low -- °F
--% Chance of Precip.
Yesterday
High -- | Low -- °F
Precip. -- in
6:28 AM 8:07 PM
Waxing Crescent, 37% visible
Pressure 30.16 in
Visibility 10.0 miles
Clouds Few 2100 ft
Heat Index 81 °F
Dew Point 72 °F
Humidity 81%
Rainfall 0.00 in
Snow Depth Not available.
UV 0 out of 12
Pollen 4.30 out of 12
Air Quality Not available.
Flu Activity Sporadic
METAR KFPR 240653Z AUTO 10009KT 10SM FEW021 26/23 A3016 RMK AO2 SLP211 T02610228 TSNO

More Conditions Fewer Conditions

Pressure 30.16 in
Visibility 10.0 miles
Clouds Few 2100 ft
Heat Index 81 °F
Dew Point 72 °F
Humidity 81%
Rainfall 0.00 in
Snow Depth Not available.
UV 0 out of 12
Pollen 4.30 out of 12
Air Quality Not available.
Flu Activity Sporadic
METAR KFPR 240653Z AUTO 10009KT 10SM FEW021 26/23 A3016 RMK AO2 SLP211 T02610228 TSNO

More Conditions Fewer Conditions

Nowcast | as of 12:28 am EDT on May 24, 2015

Breezy easterly winds over the Atlantic were generating isolated showers. These showers will affect coastal sections...particularly the Treasure Coast through the pre-dawn hours. Brief downpours will occur close to the coast. Most of the showers will dissipate before reaching inland areas around Okeechobee. Additional details...including graphics are available online at: http://www.Srh.NOAA.Gov/mlb/blog.Php

×

10-Day Weather Forecast

Almanac

Astronomy

May. 24, 2015 Rise Set
Actual Time
Civil Twilight
Nautical Twilight
Astronomical Twilight
Moon
Length of Visible Light
Length of Day
Tomorrow will be .
, % of the Moon is Illuminated

Today's Extremes

State Highs State Lows

Community

WunderPhotos

Upload Photos

1,823,698 photos uploaded!

WunderBlogs® & News

Nearby

Air Quality

  Air Quality AQ Index Pollutant
Not available.

Snow Depth

Station Depth Elevation

Earthquake Activity

City Distance Mag. Time & Date
Minimum magnitude displayed is 2.5.

Coastal Water Temperatures

Place Temperature

Stations

Nearby Weather Stations

Station Location Temp. Windchill Dew Point Humidity Wind Precip. Elev Updated Type